Decoded Metar for LCLK (LARNACA in CYPRUS) (IATA:LCA) | Meteo·Mobile Aviation Weather
aviador You're here:

LCLK Decoded Metar

LARNACA in CYPRUS
Report Time2019-05-19 18:00:00
UTC Time2019-05-19 18:19:40
Flight Rules vfr VFR
Wind180° at 03 kt
W.Decomp.*RWY 22: 2.2 kt HW 2.1 kt LCW
Visibility9999 m
Phenomena:N/A
Clouds:N/A
Expected CloudBase > 800 ft AGL from Temp-Dew spread
CeilingNone
Temp21°C (ISA +6)
Dew Point19°C (88% RH)
QNH1013 hPa
Density Alt1,001 ft
Elevation7 ft
Report Wrong Elevation
Raw Report
LCLK 191800Z 18003KT CAVOK 21/19 Q1013 NOSIG=

Extra information for LCLK:More info

Metar Taf Metar & Taf Last 4 Metars F.Rules Stats Wind Profile Meteogram Temp Stats Airport Information Weather charts Add Link Nearby VenuesMetar ALERT Operation Metar Decoded Social comments